Alyeska Resort
Max's Hourly Weather Roundup
ALYESKA_MAX 11/23/2017
Click Here for Graph

        DATE  TIME   Air  Wind  Wind  Wind  BATT   Rel
                    Temp   Spd   Dir  Gust  Volt  Hum%
                      F   MPH   AVG   MPH   AVG   AVG

  11/23/2017 19:00     7     6   168    10 12.99    90
  11/23/2017 18:00     9     3   149     7 13.08    93
  11/23/2017 17:00    11     1   202     7 13.27    90
  11/23/2017 16:00    12     4    72     8 13.77    89
  11/23/2017 15:00    12     2   206     6 13.85    93
  11/23/2017 14:00    15     4   165     7 13.78    87
  11/23/2017 13:00    22     1   170     4 13.70    70
  11/23/2017 12:00    16     1   290     3 13.74    85
  11/23/2017 11:00    14     3   296     5 13.50    90
  11/23/2017 10:00    13     3   108     4 12.62    91
  11/23/2017 09:00    14     2    92     4 12.60    89
  11/23/2017 08:00    13     5    29     9 12.60    89
  11/23/2017 07:00    13     6    23    10 12.60    88
  11/23/2017 06:00    15     3    51     6 12.60    76
  11/23/2017 05:00    15     2    99     7 12.61    71
  11/23/2017 04:00    15     4   100    10 12.62    70
  11/23/2017 03:00    15     4   106     9 12.63    71
  11/23/2017 02:00    14     4    84    12 12.65    71
  11/23/2017 01:00    12     3   117     6 12.67    78
  11/22/2017 24:00    10     4   170     6 12.69    86
  11/22/2017 23:00    10     4   160     5 12.73    88
  11/22/2017 22:00     9     4   175     9 12.77    89
  11/22/2017 21:00     9     5   164     7 12.82    90
  11/22/2017 20:00     9     4   158     7 12.87    89


Click Here for Graph